Time;durP1;ratioP1;P1;durP2;ratioP2;P2;SDS_P1;SDS_P2;PMS_P1;PMS_P2;Temp;Humidity;BMP_temperature;BMP_pressure;BME280_temperature;BME280_humidity;BME280_pressure;Samples;Min_cycle;Max_cycle;Signal;HPM_P1;HPM_P2
2021/01/14 00:00:36;;;;;;;44.47;4.47;;;1.40;16.00;;;;;;4987897;28;20456;-68
2021/01/14 00:03:10;;;;;;;37.05;4.68;;;1.40;12.50;;;;;;4987701;28;20277;-69
2021/01/14 00:05:36;;;;;;;36.45;4.57;;;1.40;7.30;;;;;;4988132;28;20201;-69
2021/01/14 00:08:02;;;;;;;33.65;4.00;;;1.40;1.00;;;;;;4985878;28;20194;-68
2021/01/14 00:10:28;;;;;;;34.25;4.10;;;1.30;1.00;;;;;;4985468;28;20207;-68
2021/01/14 00:12:54;;;;;;;35.03;4.00;;;1.30;1.00;;;;;;4988585;28;20194;-68
2021/01/14 00:15:19;;;;;;;34.10;3.80;;;1.30;1.00;;;;;;4986120;28;21140;-68
2021/01/14 00:17:45;;;;;;;34.43;3.80;;;1.30;1.00;;;;;;4988863;28;20210;-68
2021/01/14 00:20:16;;;;;;;34.30;3.90;;;1.20;1.00;;;;;;4988580;28;20195;-68
2021/01/14 00:22:43;;;;;;;34.20;3.75;;;1.20;1.00;;;;;;4986702;28;20248;-68
2021/01/14 00:25:11;;;;;;;2.83;2.63;;;1.20;1.00;;;;;;4984863;28;20194;-68
2021/01/14 00:27:37;;;;;;;4.65;2.83;;;1.20;1.00;;;;;;4986967;28;20279;-68
2021/01/14 00:30:19;;;;;;;68.60;38.38;;;1.20;1.00;;;;;;4981975;28;20192;-68
2021/01/14 00:32:45;;;;;;;2.50;2.30;;;1.10;1.00;;;;;;4987972;28;20295;-68
2021/01/14 00:35:11;;;;;;;5.20;2.53;;;1.10;1.00;;;;;;4988805;28;20761;-68
2021/01/14 00:37:52;;;;;;;10.35;3.15;;;1.00;1.00;;;;;;4988845;28;20215;-69
2021/01/14 00:40:25;;;;;;;34.20;30.63;;;1.00;1.00;;;;;;4984834;28;20290;-68
2021/01/14 00:43:08;;;;;;;3.58;2.70;;;1.00;1.00;;;;;;4987123;28;20540;-68
2021/01/14 00:45:34;;;;;;;3.33;2.45;;;1.00;1.00;;;;;;4989364;28;20223;-68
2021/01/14 00:48:01;;;;;;;2.63;2.33;;;1.00;1.00;;;;;;4993221;28;20201;-69
2021/01/14 00:50:27;;;;;;;4.70;2.90;;;0.90;1.00;;;;;;4990662;28;20187;-69
2021/01/14 00:52:53;;;;;;;2.45;2.13;;;0.90;1.00;;;;;;4990439;28;20190;-68
2021/01/14 00:55:19;;;;;;;3.40;2.27;;;0.90;1.00;;;;;;4991710;28;20208;-68
2021/01/14 00:57:45;;;;;;;2.30;2.10;;;1.00;1.00;;;;;;4988916;28;20432;-68
2021/01/14 01:00:21;;;;;;;4.05;2.53;;;1.00;1.00;;;;;;4992067;28;20209;-69
2021/01/14 01:02:49;;;;;;;4.00;2.13;;;0.90;1.00;;;;;;4990790;28;20192;-68
2021/01/14 01:05:16;;;;;;;2.50;2.30;;;0.90;1.00;;;;;;4992475;28;21007;-68
2021/01/14 01:08:01;;;;;;;3.13;2.15;;;0.90;1.00;;;;;;4991599;28;20767;-68
2021/01/14 01:10:27;;;;;;;3.72;2.20;;;0.90;1.00;;;;;;4990848;28;20200;-68
2021/01/14 01:12:54;;;;;;;2.30;2.10;;;0.90;1.00;;;;;;4978870;28;20197;-69
2021/01/14 01:15:20;;;;;;;3.58;2.33;;;0.90;1.00;;;;;;4989056;28;20956;-69
2021/01/14 01:17:46;;;;;;;2.22;2.03;;;1.00;1.00;;;;;;4978491;28;20174;-70
2021/01/14 01:20:12;;;;;;;6.60;2.50;;;0.90;1.00;;;;;;4982336;28;20260;-70
2021/01/14 01:22:38;;;;;;;3.55;2.30;;;0.90;1.00;;;;;;4989010;28;20454;-69
2021/01/14 01:25:04;;;;;;;2.40;2.20;;;0.90;1.00;;;;;;4991527;28;20194;-70
2021/01/14 01:27:29;;;;;;;6.10;2.40;;;1.00;1.00;;;;;;4990052;28;20691;-70
2021/01/14 01:29:55;;;;;;;3.73;2.27;;;0.90;1.00;;;;;;4988307;28;20454;-70
2021/01/14 01:32:21;;;;;;;3.63;2.43;;;0.90;1.00;;;;;;5003347;28;20195;-69
2021/01/14 01:34:46;;;;;;;3.13;2.33;;;0.90;1.00;;;;;;4991650;28;20223;-70
2021/01/14 01:37:12;;;;;;;2.80;2.50;;;0.90;1.00;;;;;;4989628;28;20196;-70
2021/01/14 01:39:38;;;;;;;3.77;2.20;;;0.80;1.20;;;;;;4989977;28;20714;-70
2021/01/14 01:42:04;;;;;;;3.80;2.40;;;0.90;1.90;;;;;;4983267;28;20489;-70
2021/01/14 01:44:30;;;;;;;2.50;2.17;;;0.90;1.00;;;;;;4991296;28;20267;-70
2021/01/14 01:47:00;;;;;;;3.53;2.70;;;0.90;1.00;;;;;;4990258;28;20202;-69
2021/01/14 01:49:25;;;;;;;5.13;2.80;;;0.90;2.70;;;;;;4990643;28;20168;-69
2021/01/14 01:51:52;;;;;;;5.60;2.73;;;0.90;4.20;;;;;;4990959;28;20190;-69
2021/01/14 01:54:19;;;;;;;5.75;2.78;;;0.90;9.40;;;;;;4989064;28;20184;-69
2021/01/14 01:56:44;;;;;;;6.10;2.65;;;0.90;10.40;;;;;;4990393;28;20210;-70
2021/01/14 01:59:13;;;;;;;3.30;2.63;;;0.90;16.30;;;;;;4989731;28;20239;-69
2021/01/14 02:01:38;;;;;;;4.50;2.47;;;0.90;18.10;;;;;;4986672;28;20197;-69
2021/01/14 02:04:08;;;;;;;4.83;2.37;;;0.90;19.70;;;;;;4990888;28;20178;-70
2021/01/14 02:06:50;;;;;;;4.00;2.70;;;0.90;32.50;;;;;;4989714;28;20541;-70
2021/01/14 02:09:18;;;;;;;4.05;2.40;;;0.80;39.40;;;;;;4989885;28;20192;-71
2021/01/14 02:11:50;;;;;;;5.70;2.80;;;0.80;34.40;;;;;;4979339;28;20177;-70
2021/01/14 02:14:28;;;;;;;3.38;2.13;;;0.80;37.70;;;;;;4988321;28;20239;-71
2021/01/14 02:16:55;;;;;;;6.68;2.03;;;0.80;37.70;;;;;;4988529;28;20180;-71
2021/01/14 02:19:22;;;;;;;2.90;2.13;;;0.80;27.50;;;;;;4988183;28;20221;-70
2021/01/14 02:21:51;;;;;;;2.25;1.75;;;0.90;13.90;;;;;;4990043;28;20193;-70
2021/01/14 02:24:29;;;;;;;3.20;2.30;;;0.90;15.40;;;;;;4988863;28;20176;-70
2021/01/14 02:26:57;;;;;;;3.47;1.98;;;0.90;9.60;;;;;;4989740;28;20515;-70
2021/01/14 02:29:23;;;;;;;2.00;1.70;;;0.90;10.20;;;;;;4987373;28;20239;-71
2021/01/14 02:31:48;;;;;;;2.20;1.73;;;0.90;7.80;;;;;;4989008;28;20190;-70
2021/01/14 02:34:14;;;;;;;4.07;2.70;;;0.90;1.00;;;;;;4990850;28;20194;-70
2021/01/14 02:36:39;;;;;;;4.83;1.63;;;1.00;1.00;;;;;;4989566;28;20219;-69
2021/01/14 02:39:05;;;;;;;2.73;2.07;;;1.10;1.00;;;;;;4984953;28;20286;-68
2021/01/14 02:41:31;;;;;;;3.70;1.90;;;1.10;1.00;;;;;;4986474;28;20222;-68
2021/01/14 02:43:56;;;;;;;2.00;1.80;;;1.00;1.00;;;;;;4988641;28;21056;-68
2021/01/14 02:46:23;;;;;;;2.87;1.60;;;1.00;3.90;;;;;;4989068;28;20183;-69
2021/01/14 02:49:08;;;;;;;7.15;2.20;;;1.00;21.70;;;;;;4988938;28;20216;-70
2021/01/14 02:51:45;;;;;;;3.85;1.80;;;0.90;31.70;;;;;;4988994;28;20193;-70
2021/01/14 02:54:13;;;;;;;2.88;1.80;;;0.80;49.00;;;;;;4986675;28;20219;-70
2021/01/14 02:56:40;;;;;;;4.45;1.70;;;0.70;74.90;;;;;;4989187;28;20205;-71
2021/01/14 02:59:06;;;;;;;2.42;1.80;;;0.70;90.80;;;;;;4988965;28;20522;-70
2021/01/14 03:01:33;;;;;;;4.72;2.20;;;0.60;94.80;;;;;;4989097;28;20173;-70
2021/01/14 03:03:58;;;;;;;2.55;1.88;;;0.60;99.90;;;;;;4987969;28;20213;-70
2021/01/14 03:06:24;;;;;;;5.47;2.40;;;0.60;99.90;;;;;;4987970;28;20320;-70
2021/01/14 03:08:49;;;;;;;4.57;2.07;;;0.50;99.90;;;;;;4985949;28;20665;-70
2021/01/14 03:11:16;;;;;;;6.03;2.40;;;0.50;99.90;;;;;;4988564;28;20196;-69
2021/01/14 03:13:43;;;;;;;2.90;1.95;;;0.50;99.90;;;;;;4989910;28;20246;-69
2021/01/14 03:16:09;;;;;;;2.50;1.80;;;0.50;99.90;;;;;;4990026;28;20199;-68
2021/01/14 03:18:35;;;;;;;3.47;1.70;;;0.50;99.90;;;;;;4987258;28;20195;-70
2021/01/14 03:21:00;;;;;;;3.67;2.43;;;0.60;99.90;;;;;;4989155;28;20195;-69
2021/01/14 03:23:26;;;;;;;2.93;1.90;;;0.50;99.90;;;;;;4988810;28;20643;-69
2021/01/14 03:25:52;;;;;;;2.90;2.10;;;0.50;99.90;;;;;;4990090;28;20543;-69
2021/01/14 03:28:17;;;;;;;2.90;2.00;;;0.50;99.90;;;;;;4989093;28;20185;-69
2021/01/14 03:30:43;;;;;;;4.13;2.30;;;0.50;99.90;;;;;;4987259;28;20187;-68
2021/01/14 03:33:09;;;;;;;3.97;2.10;;;0.50;99.90;;;;;;4990160;28;20192;-69
2021/01/14 03:35:34;;;;;;;4.10;2.00;;;0.50;99.90;;;;;;4986561;28;20218;-70
2021/01/14 03:38:00;;;;;;;3.00;2.00;;;0.50;99.90;;;;;;4987640;28;20194;-69
2021/01/14 03:40:25;;;;;;;2.37;2.00;;;0.40;99.90;;;;;;4988927;28;20623;-69
2021/01/14 03:42:51;;;;;;;4.30;2.17;;;0.50;99.90;;;;;;4986723;28;20180;-69
2021/01/14 03:45:17;;;;;;;3.30;2.23;;;0.40;99.90;;;;;;4989618;28;20239;-69
2021/01/14 03:47:42;;;;;;;4.70;2.20;;;0.40;99.90;;;;;;4987633;28;20898;-69
2021/01/14 03:50:09;;;;;;;2.93;1.73;;;0.50;99.90;;;;;;4980557;28;20262;-69
2021/01/14 03:52:35;;;;;;;3.22;2.03;;;0.50;99.90;;;;;;4988363;28;20192;-69
2021/01/14 03:55:01;;;;;;;4.50;2.78;;;0.50;99.90;;;;;;4989217;28;20287;-69
2021/01/14 03:57:27;;;;;;;3.65;2.90;;;0.50;99.90;;;;;;4988941;28;20192;-68
2021/01/14 03:59:52;;;;;;;4.50;2.77;;;0.50;99.90;;;;;;4987131;28;20180;-70
2021/01/14 04:02:18;;;;;;;5.30;2.70;;;0.50;99.90;;;;;;4988948;28;20584;-69
2021/01/14 04:04:44;;;;;;;3.07;2.57;;;0.50;99.90;;;;;;4989304;28;20238;-69
2021/01/14 04:07:11;;;;;;;4.50;2.90;;;0.60;99.90;;;;;;4988320;28;20234;-69
2021/01/14 04:09:37;;;;;;;4.05;2.75;;;0.60;99.90;;;;;;4987248;28;20172;-68
2021/01/14 04:12:03;;;;;;;3.42;3.10;;;0.50;99.90;;;;;;4986070;28;20188;-68
2021/01/14 04:14:30;;;;;;;3.90;3.30;;;0.60;99.90;;;;;;4983640;28;20245;-68
2021/01/14 04:16:55;;;;;;;3.75;3.22;;;0.60;99.90;;;;;;4984294;28;20817;-68
2021/01/14 04:19:22;;;;;;;5.33;3.60;;;0.60;99.90;;;;;;4985254;28;20178;-68
2021/01/14 04:21:47;;;;;;;5.70;3.90;;;0.70;99.90;;;;;;4991024;28;20185;-68
2021/01/14 04:24:13;;;;;;;4.63;3.43;;;0.60;99.90;;;;;;4991022;28;20203;-68
2021/01/14 04:26:39;;;;;;;7.10;3.77;;;0.70;99.90;;;;;;4992629;28;20176;-69
2021/01/14 04:29:05;;;;;;;5.63;4.50;;;0.70;99.90;;;;;;4988113;28;20201;-68
2021/01/14 04:31:31;;;;;;;4.57;3.20;;;0.70;99.90;;;;;;4991104;28;20550;-68
2021/01/14 04:33:57;;;;;;;5.33;3.73;;;0.70;99.90;;;;;;5008051;28;20296;-68
2021/01/14 04:36:26;;;;;;;6.33;3.70;;;0.80;99.90;;;;;;4991008;28;20467;-68
2021/01/14 04:38:51;;;;;;;4.53;3.35;;;0.80;99.90;;;;;;4990453;28;20259;-69
2021/01/14 04:41:19;;;;;;;5.57;3.80;;;0.90;99.90;;;;;;4990167;28;21090;-69
2021/01/14 04:43:45;;;;;;;5.03;3.28;;;0.80;99.90;;;;;;4991740;28;20181;-68
2021/01/14 04:46:12;;;;;;;5.20;3.72;;;0.80;99.90;;;;;;4990535;28;20221;-68
2021/01/14 04:48:42;;;;;;;6.95;3.75;;;0.80;99.90;;;;;;4991233;28;20258;-68
2021/01/14 04:51:19;;;;;;;4.72;4.10;;;0.80;99.90;;;;;;4989754;28;20233;-68
2021/01/14 04:53:50;;;;;;;5.88;3.95;;;0.80;99.90;;;;;;4988403;28;20243;-68
2021/01/14 04:56:17;;;;;;;4.15;3.40;;;0.80;99.90;;;;;;4981018;28;20239;-69
2021/01/14 04:58:47;;;;;;;4.80;3.40;;;0.80;99.90;;;;;;4992111;28;20713;-69
2021/01/14 05:01:24;;;;;;;5.63;3.85;;;0.80;99.90;;;;;;4991266;28;20189;-69
2021/01/14 05:03:52;;;;;;;5.32;3.95;;;0.80;99.90;;;;;;4991687;28;20178;-70
2021/01/14 05:06:20;;;;;;;5.50;3.97;;;0.70;99.90;;;;;;5004721;28;20202;-70
2021/01/14 05:08:47;;;;;;;5.03;4.20;;;0.80;99.90;;;;;;4989541;28;20190;-69
2021/01/14 05:11:17;;;;;;;5.30;4.00;;;0.80;99.90;;;;;;4989072;28;20204;-69
2021/01/14 05:13:45;;;;;;;5.35;3.42;;;0.80;99.90;;;;;;4982035;28;20193;-69
2021/01/14 05:16:11;;;;;;;5.57;3.78;;;0.80;99.90;;;;;;4981019;28;20248;-69
2021/01/14 05:18:37;;;;;;;5.88;3.78;;;0.80;99.90;;;;;;4981359;28;20182;-69
2021/01/14 05:21:03;;;;;;;6.07;4.33;;;0.80;99.90;;;;;;4981997;28;20188;-69
2021/01/14 05:23:31;;;;;;;6.03;3.88;;;0.80;99.90;;;;;;4982002;28;20194;-69
2021/01/14 05:26:01;;;;;;;5.38;3.40;;;0.80;99.90;;;;;;4982788;28;20313;-70
2021/01/14 05:28:29;;;;;;;5.28;3.75;;;0.80;99.90;;;;;;4983196;28;20186;-69
2021/01/14 05:31:21;;;;;;;3.90;3.15;;;0.80;99.90;;;;;;4981161;28;20284;-70
2021/01/14 05:33:59;;;;;;;4.95;3.50;;;0.80;99.90;;;;;;4984769;28;20191;-69
2021/01/14 05:36:24;;;;;;;4.88;3.85;;;0.80;99.90;;;;;;4987787;28;20280;-69
2021/01/14 05:38:51;;;;;;;4.30;3.10;;;0.80;99.90;;;;;;4991041;28;20188;-70
2021/01/14 05:41:21;;;;;;;4.47;3.05;;;0.90;99.90;;;;;;4990675;28;20236;-70
2021/01/14 05:43:49;;;;;;;4.00;3.00;;;0.80;99.90;;;;;;4983985;28;20216;-69
2021/01/14 05:46:17;;;;;;;4.85;3.10;;;0.80;99.90;;;;;;4986955;28;20572;-70
2021/01/14 05:48:44;;;;;;;3.40;2.67;;;0.80;99.90;;;;;;4991059;28;20181;-70
2021/01/14 05:51:20;;;;;;;3.92;2.78;;;0.80;99.90;;;;;;4990184;28;20211;-70
2021/01/14 05:54:03;;;;;;;4.35;3.15;;;0.80;99.90;;;;;;4989081;28;20212;-71
2021/01/14 05:56:33;;;;;;;3.40;2.53;;;0.80;99.90;;;;;;4990645;28;20212;-69
2021/01/14 05:59:00;;;;;;;3.88;3.20;;;0.70;99.90;;;;;;4991272;28;20212;-69
2021/01/14 06:01:26;;;;;;;10.00;3.28;;;0.70;99.90;;;;;;4987700;28;20201;-69
2021/01/14 06:03:52;;;;;;;4.50;3.47;;;0.80;99.90;;;;;;4991194;28;20218;-69
2021/01/14 06:06:18;;;;;;;4.40;3.50;;;0.70;99.90;;;;;;4989869;28;20202;-70
2021/01/14 06:08:44;;;;;;;4.40;3.17;;;0.80;99.90;;;;;;4990932;28;20236;-70
2021/01/14 06:11:21;;;;;;;4.10;3.33;;;0.80;99.90;;;;;;5004577;28;20673;-70
2021/01/14 06:13:46;;;;;;;4.30;3.33;;;0.80;99.90;;;;;;4989690;28;20627;-69
2021/01/14 06:16:12;;;;;;;4.90;3.80;;;0.70;99.90;;;;;;4988841;28;20216;-68
2021/01/14 06:18:38;;;;;;;4.85;3.35;;;0.80;99.90;;;;;;4990816;28;20196;-70
2021/01/14 06:21:04;;;;;;;5.53;3.53;;;0.80;99.90;;;;;;4988598;28;20227;-70
2021/01/14 06:23:47;;;;;;;5.97;4.17;;;0.80;99.90;;;;;;4986062;28;20497;-70
2021/01/14 06:26:26;;;;;;;5.55;3.95;;;0.80;99.90;;;;;;4978137;28;20430;-70
2021/01/14 06:28:52;;;;;;;7.00;4.35;;;0.80;99.90;;;;;;4989124;28;20270;-69
2021/01/14 06:31:24;;;;;;;6.90;4.80;;;0.80;99.90;;;;;;4990044;28;20275;-71
2021/01/14 06:33:53;;;;;;;7.10;4.53;;;0.80;99.90;;;;;;4989315;28;20189;-70
2021/01/14 06:36:20;;;;;;;6.95;4.75;;;0.80;99.90;;;;;;4989268;28;20208;-70
2021/01/14 06:38:48;;;;;;;5.13;4.07;;;0.80;99.90;;;;;;4986408;28;20227;-70
2021/01/14 06:41:13;;;;;;;5.88;4.40;;;0.80;99.90;;;;;;4986630;28;20222;-71
2021/01/14 06:43:42;;;;;;;5.80;4.00;;;0.90;99.90;;;;;;4979126;28;20224;-70
2021/01/14 06:46:24;;;;;;;5.70;4.30;;;0.90;99.90;;;;;;4988960;28;20815;-70
2021/01/14 06:49:19;;;;;;;5.45;4.30;;;0.90;99.90;;;;;;4983107;28;20244;-70
2021/01/14 06:51:56;;;;;;;7.07;4.57;;;0.90;99.90;;;;;;4990520;28;20256;-70
2021/01/14 06:54:25;;;;;;;5.75;4.22;;;1.00;99.90;;;;;;4989846;28;20188;-71
2021/01/14 06:57:11;;;;;;;8.32;4.50;;;1.00;99.90;;;;;;4989408;28;20304;-71
2021/01/14 06:59:38;;;;;;;5.95;4.15;;;1.00;99.90;;;;;;4990461;28;20182;-71
2021/01/14 07:02:07;;;;;;;6.18;5.22;;;1.00;99.90;;;;;;4988789;28;20176;-71
2021/01/14 07:04:44;;;;;;;7.78;5.05;;;1.00;99.90;;;;;;4990162;28;20186;-71
2021/01/14 07:07:27;;;;;;;8.27;5.30;;;1.00;99.90;;;;;;4989247;28;20238;-70
2021/01/14 07:10:06;;;;;;;8.10;5.45;;;1.00;99.90;;;;;;4989974;28;20189;-70
2021/01/14 07:12:34;;;;;;;8.95;5.80;;;1.00;99.90;;;;;;4977801;28;20192;-69
2021/01/14 07:15:07;;;;;;;10.60;6.03;;;1.00;99.90;;;;;;4982073;28;20193;-69
2021/01/14 07:17:36;;;;;;;12.35;7.32;;;1.00;99.90;;;;;;4989441;28;20247;-70
2021/01/14 07:20:13;;;;;;;12.82;7.38;;;1.10;99.90;;;;;;4989062;28;20192;-70
2021/01/14 07:22:53;;;;;;;10.55;6.38;;;1.10;99.90;;;;;;4986957;28;20185;-70
2021/01/14 07:25:20;;;;;;;13.95;7.13;;;1.10;99.90;;;;;;4988995;28;20183;-70
2021/01/14 07:27:48;;;;;;;9.63;6.20;;;1.20;99.90;;;;;;4987287;28;20189;-70
2021/01/14 07:30:17;;;;;;;12.88;7.25;;;1.20;99.90;;;;;;4989371;28;20239;-70
2021/01/14 07:33:06;;;;;;;10.88;7.15;;;1.20;99.90;;;;;;4986769;28;20327;-70
2021/01/14 07:35:42;;;;;;;15.30;7.82;;;1.20;99.90;;;;;;4988034;28;20198;-70
2021/01/14 07:38:12;;;;;;;10.13;6.70;;;1.20;99.90;;;;;;4989468;28;20193;-69
2021/01/14 07:40:39;;;;;;;14.15;6.90;;;1.30;99.90;;;;;;4989031;28;20631;-69
2021/01/14 07:43:13;;;;;;;13.95;6.90;;;1.20;99.90;;;;;;4989321;28;20188;-69
2021/01/14 07:45:39;;;;;;;12.85;7.38;;;1.20;99.90;;;;;;4989241;28;20177;-68
2021/01/14 07:48:18;;;;;;;10.20;6.72;;;1.30;99.90;;;;;;4988998;28;20675;-68
2021/01/14 07:50:59;;;;;;;11.60;7.50;;;1.30;99.90;;;;;;4989082;28;20178;-69
2021/01/14 07:53:26;;;;;;;13.18;7.57;;;1.30;99.90;;;;;;4990055;28;20198;-68
2021/01/14 07:55:53;;;;;;;14.48;8.02;;;1.30;99.90;;;;;;4991056;28;20205;-68
2021/01/14 07:58:21;;;;;;;16.42;7.63;;;1.30;99.90;;;;;;4989970;28;20192;-68
2021/01/14 08:01:07;;;;;;;10.40;7.05;;;1.30;99.90;;;;;;4993392;28;20963;-68
2021/01/14 08:03:43;;;;;;;12.27;6.50;;;1.40;99.90;;;;;;4993172;28;20185;-68
2021/01/14 08:06:35;;;;;;;11.40;6.65;;;1.40;99.90;;;;;;4993365;28;20191;-68
2021/01/14 08:09:07;;;;;;;10.15;5.47;;;1.40;98.10;;;;;;4989058;28;20892;-67
2021/01/14 08:11:35;;;;;;;10.45;6.25;;;1.40;96.00;;;;;;4992443;28;20313;-69
2021/01/14 08:14:09;;;;;;;9.18;5.93;;;1.40;98.90;;;;;;4992490;28;20182;-67
2021/01/14 08:16:38;;;;;;;8.27;5.45;;;1.40;99.60;;;;;;4991872;28;20209;-66
2021/01/14 08:19:16;;;;;;;10.65;6.95;;;1.40;97.90;;;;;;4987951;28;20193;-67
2021/01/14 08:21:58;;;;;;;11.07;6.38;;;1.50;98.10;;;;;;4980406;28;20183;-67
2021/01/14 08:24:51;;;;;;;10.82;6.90;;;1.50;98.90;;;;;;4991362;28;20178;-67
2021/01/14 08:27:28;;;;;;;21.63;15.15;;;1.40;98.80;;;;;;4991584;28;20799;-69
2021/01/14 08:30:05;;;;;;;11.82;6.80;;;1.40;99.90;;;;;;4992116;28;20189;-67
2021/01/14 08:32:33;;;;;;;9.10;6.20;;;1.50;98.90;;;;;;4990329;28;20571;-68
2021/01/14 08:35:01;;;;;;;25.80;17.65;;;1.50;99.90;;;;;;4991730;28;20181;-68
2021/01/14 08:37:38;;;;;;;15.15;10.15;;;1.50;99.90;;;;;;4991821;28;20178;-68
2021/01/14 08:40:09;;;;;;;13.10;7.70;;;1.40;99.90;;;;;;4990809;28;20221;-69
2021/01/14 08:42:40;;;;;;;8.85;5.70;;;1.40;99.90;;;;;;4977510;28;20268;-69
2021/01/14 08:45:13;;;;;;;13.38;7.13;;;1.50;99.90;;;;;;4989815;28;20194;-69
2021/01/14 08:48:06;;;;;;;9.60;6.53;;;1.40;99.90;;;;;;4991438;28;20622;-69
2021/01/14 08:50:45;;;;;;;8.50;5.78;;;1.50;99.90;;;;;;4991730;28;20243;-70
2021/01/14 08:53:17;;;;;;;9.88;5.97;;;1.40;99.90;;;;;;4988007;28;20194;-69
2021/01/14 08:55:44;;;;;;;9.40;6.93;;;1.30;99.90;;;;;;4985152;28;20213;-69
2021/01/14 08:58:09;;;;;;;11.27;7.35;;;1.30;99.90;;;;;;4991238;28;20182;-70
2021/01/14 09:00:37;;;;;;;9.80;6.23;;;1.30;99.90;;;;;;4990081;28;20239;-70
2021/01/14 09:03:04;;;;;;;10.35;6.07;;;1.30;99.90;;;;;;4987691;28;20424;-70
2021/01/14 09:05:31;;;;;;;9.75;5.97;;;1.40;99.90;;;;;;4990632;28;20286;-71
2021/01/14 09:08:04;;;;;;;10.50;6.65;;;1.40;99.90;;;;;;4991470;28;20881;-74
2021/01/14 09:10:48;;;;;;;11.90;6.22;;;1.40;99.90;;;;;;4990796;28;20239;-69
2021/01/14 09:13:26;;;;;;;10.73;6.55;;;1.40;99.90;;;;;;4985504;28;20188;-71
2021/01/14 09:15:54;;;;;;;9.82;6.32;;;1.40;99.90;;;;;;4991488;28;20308;-71
2021/01/14 09:18:34;;;;;;;14.10;7.25;;;1.40;99.90;;;;;;4990983;28;20705;-69
2021/01/14 09:21:00;;;;;;;12.30;8.10;;;1.40;99.90;;;;;;4989747;28;20832;-69
2021/01/14 09:23:35;;;;;;;12.55;8.20;;;1.40;99.90;;;;;;4991161;28;20267;-68
2021/01/14 09:26:10;;;;;;;13.35;8.15;;;1.40;99.90;;;;;;4990385;28;21041;-66
2021/01/14 09:28:35;;;;;;;12.20;7.50;;;1.50;99.90;;;;;;4983196;28;20189;-68
2021/01/14 09:31:09;;;;;;;14.80;8.60;;;1.50;99.90;;;;;;4991116;28;20201;-69
2021/01/14 09:33:36;;;;;;;10.35;7.25;;;1.50;99.90;;;;;;4981942;28;20668;-68
2021/01/14 09:36:08;;;;;;;13.40;7.55;;;1.50;99.90;;;;;;4990818;28;20660;-68
2021/01/14 09:38:48;;;;;;;13.88;8.43;;;1.50;99.90;;;;;;4990413;28;20266;-68
2021/01/14 09:41:23;;;;;;;16.67;9.60;;;1.50;99.90;;;;;;4990885;28;20245;-66
2021/01/14 09:43:49;;;;;;;14.30;9.20;;;1.60;99.90;;;;;;4986652;28;20266;-65
2021/01/14 09:46:15;;;;;;;16.55;9.38;;;1.60;99.90;;;;;;4988553;28;20186;-66
2021/01/14 09:48:41;;;;;;;15.97;9.93;;;1.60;99.90;;;;;;4988481;28;20552;-66
2021/01/14 09:51:11;;;;;;;14.73;8.95;;;1.70;99.90;;;;;;4975669;28;21014;-66
2021/01/14 09:53:45;;;;;;;17.30;9.93;;;1.70;99.90;;;;;;4978400;28;20546;-65
2021/01/14 09:56:15;;;;;;;18.58;10.15;;;1.80;99.90;;;;;;4989032;28;20230;-66
2021/01/14 09:58:44;;;;;;;16.27;10.32;;;1.80;99.90;;;;;;4985717;28;20194;-65
2021/01/14 10:01:13;;;;;;;16.92;10.30;;;1.80;99.90;;;;;;4991165;28;20197;-65
2021/01/14 10:03:45;;;;;;;16.85;10.00;;;1.80;99.90;;;;;;4988086;28;20553;-65
2021/01/14 10:06:12;;;;;;;19.63;10.43;;;1.90;99.90;;;;;;4990989;28;20191;-65
2021/01/14 10:08:40;;;;;;;18.15;10.80;;;1.90;99.90;;;;;;4988304;28;20865;-65
2021/01/14 10:11:06;;;;;;;41.63;11.52;;;1.90;99.90;;;;;;4989470;28;20565;-64
2021/01/14 10:13:32;;;;;;;13.43;10.00;;;1.90;99.90;;;;;;4987877;28;20244;-65
2021/01/14 10:16:11;;;;;;;83.18;44.65;;;1.90;99.90;;;;;;4989473;28;20723;-65
2021/01/14 10:18:36;;;;;;;12.73;6.88;;;1.90;99.90;;;;;;4989626;28;20578;-64
2021/01/14 10:21:03;;;;;;;6.10;5.60;;;1.80;99.90;;;;;;4988904;28;20260;-63
2021/01/14 10:23:29;;;;;;;15.23;9.48;;;1.90;99.90;;;;;;4985798;28;20271;-64
2021/01/14 10:25:55;;;;;;;16.52;10.35;;;1.80;99.90;;;;;;4990236;28;20230;-64
2021/01/14 10:28:23;;;;;;;17.60;10.10;;;1.80;99.90;;;;;;4990433;28;20255;-65
2021/01/14 10:30:49;;;;;;;17.60;10.65;;;1.80;99.90;;;;;;4989766;28;20273;-64
2021/01/14 10:33:15;;;;;;;17.83;10.80;;;1.80;99.90;;;;;;4989559;28;20842;-64
2021/01/14 10:35:41;;;;;;;15.20;9.60;;;1.80;99.90;;;;;;4987783;28;20264;-65
2021/01/14 10:38:26;;;;;;;18.67;10.70;;;1.90;99.90;;;;;;4989727;28;20181;-64
2021/01/14 10:40:54;;;;;;;17.15;10.77;;;1.90;99.90;;;;;;4989995;28;20222;-64
2021/01/14 10:43:37;;;;;;;18.10;10.15;;;2.00;99.90;;;;;;5004519;28;20292;-64
2021/01/14 10:46:04;;;;;;;15.00;9.73;;;1.90;99.90;;;;;;4990010;28;20184;-65
2021/01/14 10:48:37;;;;;;;15.45;9.63;;;1.90;99.90;;;;;;4989654;28;20187;-64
2021/01/14 10:51:03;;;;;;;14.93;8.93;;;2.00;99.90;;;;;;4988375;28;20248;-64
2021/01/14 10:53:30;;;;;;;14.63;9.40;;;1.90;99.90;;;;;;4989489;28;20643;-65
2021/01/14 10:56:07;;;;;;;15.25;8.93;;;2.00;99.90;;;;;;4988698;28;20206;-65
2021/01/14 10:58:33;;;;;;;12.52;8.77;;;2.00;99.90;;;;;;4987861;28;20678;-65
2021/01/14 11:00:59;;;;;;;14.45;10.30;;;2.00;99.90;;;;;;4988928;28;20545;-66
2021/01/14 11:03:27;;;;;;;12.65;8.20;;;2.00;99.90;;;;;;4988126;28;20186;-65
2021/01/14 11:05:54;;;;;;;17.88;8.75;;;2.10;99.90;;;;;;4989473;28;20180;-65
2021/01/14 11:08:24;;;;;;;13.80;8.70;;;2.10;99.50;;;;;;4987315;28;20664;-65
2021/01/14 11:11:02;;;;;;;16.73;8.90;;;2.10;97.30;;;;;;4984407;28;20185;-65
2021/01/14 11:13:46;;;;;;;16.38;9.70;;;2.20;96.50;;;;;;4989018;28;20193;-64
2021/01/14 11:16:13;;;;;;;11.35;8.60;;;2.10;95.60;;;;;;4989717;28;20858;-64
2021/01/14 11:18:45;;;;;;;13.30;9.13;;;2.10;98.00;;;;;;4985807;28;20193;-63
2021/01/14 11:21:14;;;;;;;14.05;9.10;;;2.10;95.30;;;;;;4987370;28;20559;-63
2021/01/14 11:23:40;;;;;;;14.30;9.05;;;2.10;94.80;;;;;;4978239;28;20551;-63
2021/01/14 11:26:07;;;;;;;15.00;10.10;;;2.10;92.70;;;;;;4989760;28;20183;-63
2021/01/14 11:28:38;;;;;;;12.68;8.23;;;2.00;92.60;;;;;;4988287;28;20270;-64
2021/01/14 11:31:05;;;;;;;14.18;9.38;;;2.10;91.70;;;;;;4985339;28;20206;-64
2021/01/14 11:33:31;;;;;;;11.20;7.95;;;2.00;76.20;;;;;;4969161;28;20191;-63
2021/01/14 11:35:56;;;;;;;16.90;8.87;;;2.00;82.30;;;;;;4983059;28;20264;-64
2021/01/14 11:38:22;;;;;;;12.20;7.90;;;2.10;66.40;;;;;;4989317;28;20170;-63
2021/01/14 11:40:49;;;;;;;14.40;8.30;;;2.00;65.70;;;;;;4987042;28;20253;-63
2021/01/14 11:43:15;;;;;;;12.30;7.65;;;2.10;78.70;;;;;;4989569;28;20484;-64
2021/01/14 11:45:41;;;;;;;11.80;7.50;;;2.20;72.60;;;;;;4989023;28;20229;-64
2021/01/14 11:48:08;;;;;;;11.85;8.00;;;2.20;66.50;;;;;;4988164;28;20589;-65
2021/01/14 11:50:34;;;;;;;12.15;7.45;;;2.20;58.10;;;;;;4989364;28;20306;-65
2021/01/14 11:53:00;;;;;;;13.33;7.53;;;2.20;58.60;;;;;;4988023;28;20269;-65
2021/01/14 11:55:25;;;;;;;12.73;7.40;;;2.20;55.70;;;;;;4989163;28;20474;-66
2021/01/14 11:57:51;;;;;;;11.33;6.80;;;2.20;52.80;;;;;;4986510;28;20248;-66
2021/01/14 12:00:17;;;;;;;10.13;6.47;;;2.20;50.60;;;;;;4981231;28;20298;-66
2021/01/14 12:02:44;;;;;;;13.25;7.15;;;2.20;33.70;;;;;;4979436;28;20194;-66
2021/01/14 12:05:10;;;;;;;10.27;6.32;;;2.20;29.10;;;;;;4988124;28;20665;-66
2021/01/14 12:07:36;;;;;;;10.20;6.20;;;2.20;36.40;;;;;;4987121;28;20187;-66
2021/01/14 12:10:02;;;;;;;9.43;6.50;;;2.20;33.00;;;;;;4987167;28;20433;-65
2021/01/14 12:12:27;;;;;;;7.50;5.80;;;2.20;29.70;;;;;;4981137;28;20202;-65
2021/01/14 12:14:53;;;;;;;12.63;6.67;;;2.20;26.90;;;;;;4987391;28;20190;-65
2021/01/14 12:17:19;;;;;;;10.57;6.07;;;2.30;29.80;;;;;;4988327;28;20610;-64
2021/01/14 12:19:44;;;;;;;10.40;6.97;;;2.40;42.80;;;;;;4988473;28;20274;-65
2021/01/14 12:22:10;;;;;;;10.97;5.87;;;2.50;45.90;;;;;;4987811;28;20201;-65
2021/01/14 12:24:36;;;;;;;8.10;5.20;;;2.60;32.00;;;;;;4986592;28;20190;-66
2021/01/14 12:27:02;;;;;;;9.90;5.40;;;2.70;24.10;;;;;;4987572;28;20940;-66
2021/01/14 12:29:27;;;;;;;8.40;5.50;;;2.70;15.50;;;;;;4987568;28;20194;-67
2021/01/14 12:31:54;;;;;;;9.27;5.93;;;2.80;11.20;;;;;;4987127;28;20476;-67
2021/01/14 12:34:20;;;;;;;7.18;5.10;;;2.80;1.00;;;;;;5002096;28;20470;-67
2021/01/14 12:36:47;;;;;;;9.07;5.53;;;2.70;1.00;;;;;;4987714;28;20242;-67
2021/01/14 12:39:13;;;;;;;8.38;5.88;;;2.60;1.00;;;;;;4988842;28;20196;-67
2021/01/14 12:41:41;;;;;;;8.50;6.00;;;2.70;4.30;;;;;;4987298;28;20240;-68
2021/01/14 12:44:07;;;;;;;8.15;5.20;;;2.70;11.20;;;;;;4991591;28;20876;-70
2021/01/14 12:46:47;;;;;;;8.15;5.25;;;2.80;1.00;;;;;;4991221;28;20202;-70
2021/01/14 12:49:18;;;;;;;8.70;5.40;;;2.70;1.00;;;;;;4991423;28;20194;-67
2021/01/14 12:51:46;;;;;;;6.65;4.80;;;2.70;1.00;;;;;;4988846;28;20261;-68
2021/01/14 12:54:13;;;;;;;9.00;5.20;;;2.70;6.50;;;;;;4983597;28;20187;-68
2021/01/14 12:56:41;;;;;;;7.93;5.55;;;2.60;9.00;;;;;;4989777;28;20221;-68
2021/01/14 12:59:07;;;;;;;7.47;4.85;;;2.60;19.80;;;;;;4991457;28;20186;-69
2021/01/14 13:01:34;;;;;;;9.57;5.78;;;2.50;25.40;;;;;;4987780;28;20196;-68
2021/01/14 13:04:02;;;;;;;9.20;6.20;;;2.50;12.90;;;;;;4983382;28;20198;-68
2021/01/14 13:06:32;;;;;;;8.10;4.65;;;2.40;16.10;;;;;;4990696;28;20565;-69